Time;durP1;ratioP1;P1;durP2;ratioP2;P2;SDS_P1;SDS_P2;PMS_P1;PMS_P2;Temp;Humidity;BMP_temperature;BMP_pressure;BME280_temperature;BME280_humidity;BME280_pressure;Samples;Min_cycle;Max_cycle;Signal;HPM_P1;HPM_P2
2022/02/23 00:02:04;;;;;;;;;;;179.90;1433.60;;;;;;5102678;28;19915;-57
2022/02/23 00:04:31;;;;;;;;;;;179.80;1459.20;;;;;;5105131;28;19999;-58
2022/02/23 00:06:58;;;;;;;;;;;179.80;1459.20;;;;;;5099650;28;19904;-58
2022/02/23 00:09:26;;;;;;;;;;;179.80;1459.20;;;;;;5102988;28;19903;-59
2022/02/23 00:11:54;;;;;;;;;;;179.70;1459.20;;;;;;5099155;28;19904;-57
2022/02/23 00:14:23;;;;;;;;;;;179.70;1459.20;;;;;;5094943;28;20338;-58
2022/02/23 00:16:48;;;;;;;;;;;179.60;1484.80;;;;;;5094123;28;19912;-57
2022/02/23 00:19:17;;;;;;;;;;;179.60;1459.20;;;;;;5094064;28;19912;-57
2022/02/23 00:21:45;;;;;;;;;;;179.60;1459.20;;;;;;5094155;28;19904;-58
2022/02/23 00:24:11;;;;;;;;;;;179.60;1459.20;;;;;;5094096;28;19926;-58
2022/02/23 00:26:40;;;;;;;;;;;179.60;1459.20;;;;;;5094312;28;20349;-58
2022/02/23 00:29:08;;;;;;;;;;;179.60;1459.20;;;;;;5094300;28;20269;-57
2022/02/23 00:31:34;;;;;;;;;;;179.60;1459.20;;;;;;5094077;28;19911;-58
2022/02/23 00:34:02;;;;;;;;;;;179.60;1459.20;;;;;;5094315;28;19904;-57
2022/02/23 00:36:31;;;;;;;;;;;179.60;1484.80;;;;;;5094064;28;20423;-58
2022/02/23 00:38:57;;;;;;;;;;;179.60;1459.20;;;;;;5094142;28;19998;-57
2022/02/23 00:41:25;;;;;;;;;;;179.50;1459.20;;;;;;5093928;28;20019;-58
2022/02/23 00:43:54;;;;;;;;;;;179.50;1459.20;;;;;;5094103;28;19904;-58
2022/02/23 00:46:22;;;;;;;;;;;179.50;1459.20;;;;;;5094110;28;19930;-58
2022/02/23 00:48:53;;;;;;;;;;;179.50;1484.80;;;;;;5094370;28;19908;-57
2022/02/23 00:51:22;;;;;;;;;;;179.50;1459.20;;;;;;5094053;28;20296;-58
2022/02/23 00:53:50;;;;;;;;;;;179.50;1484.80;;;;;;5097252;28;20277;-57
2022/02/23 00:56:19;;;;;;;;;;;179.50;1459.20;;;;;;5097815;28;19911;-58
2022/02/23 00:58:47;;;;;;;;;;;179.40;1484.80;;;;;;5097813;28;20013;-57
2022/02/23 01:01:16;;;;;;;;;;;179.40;1484.80;;;;;;5097754;28;19904;-58
2022/02/23 01:03:45;;;;;;;;;;;179.40;1459.20;;;;;;5097708;28;20354;-58
2022/02/23 01:06:14;;;;;;;;;;;179.40;1484.80;;;;;;5097789;28;20333;-58
2022/02/23 01:08:42;;;;;;;;;;;179.40;1484.80;;;;;;5097870;28;19911;-58
2022/02/23 01:11:11;;;;;;;;;;;179.30;1484.80;;;;;;5097497;28;20361;-58
2022/02/23 01:13:40;;;;;;;;;;;179.30;1484.80;;;;;;5097736;28;20335;-58
2022/02/23 01:16:08;;;;;;;;;;;179.30;1484.80;;;;;;5097412;28;19903;-58
2022/02/23 01:18:34;;;;;;;;;;;179.30;1484.80;;;;;;5097574;28;20355;-58
2022/02/23 01:21:02;;;;;;;;;;;179.30;1484.80;;;;;;5097095;28;19908;-58
2022/02/23 01:23:31;;;;;;;;;;;179.30;1484.80;;;;;;5097660;28;19914;-58
2022/02/23 01:25:59;;;;;;;;;;;179.30;1484.80;;;;;;5097319;28;19994;-59
2022/02/23 01:28:28;;;;;;;;;;;179.20;1484.80;;;;;;5097473;28;19953;-58
2022/02/23 01:30:57;;;;;;;;;;;179.20;1484.80;;;;;;5097299;28;19933;-58
2022/02/23 01:33:26;;;;;;;;;;;179.30;1484.80;;;;;;5096901;28;19916;-58
2022/02/23 01:35:55;;;;;;;;;;;179.20;1484.80;;;;;;5097281;28;19904;-58
2022/02/23 01:38:23;;;;;;;;;;;179.20;1484.80;;;;;;5097366;28;19904;-58
2022/02/23 01:40:52;;;;;;;;;;;179.20;1510.40;;;;;;5096907;28;19912;-58
2022/02/23 01:43:17;;;;;;;;;;;179.20;1510.40;;;;;;5097126;28;19969;-58
2022/02/23 01:45:46;;;;;;;;;;;154.50;1484.80;;;;;;5097101;28;19973;-58
2022/02/23 01:48:15;;;;;;;;;;;179.20;1510.40;;;;;;5096909;28;19904;-58
2022/02/23 01:50:43;;;;;;;;;;;154.50;1484.80;;;;;;5097125;28;19911;-58
2022/02/23 01:53:12;;;;;;;;;;;179.20;1484.80;;;;;;5096881;28;19908;-58
2022/02/23 01:55:41;;;;;;;;;;;179.20;1484.80;;;;;;5096795;28;19904;-59
2022/02/23 01:58:09;;;;;;;;;;;179.20;1484.80;;;;;;5096677;28;20404;-58
2022/02/23 02:00:38;;;;;;;;;;;179.20;1484.80;;;;;;5096763;28;20380;-58
2022/02/23 02:03:07;;;;;;;;;;;179.20;1484.80;;;;;;5097032;28;20314;-58
2022/02/23 02:05:35;;;;;;;;;;;154.50;1510.40;;;;;;5095726;28;19911;-58
2022/02/23 02:08:01;;;;;;;;;;;154.40;1484.80;;;;;;5096505;28;19908;-59
2022/02/23 02:10:29;;;;;;;;;;;154.50;1484.80;;;;;;5096570;28;19904;-58
2022/02/23 02:12:58;;;;;;;;;;;154.50;1510.40;;;;;;5096293;28;19900;-58
2022/02/23 02:15:27;;;;;;;;;;;154.40;1484.80;;;;;;5096517;28;19910;-58
2022/02/23 02:17:56;;;;;;;;;;;154.30;1510.40;;;;;;5096470;28;19908;-58
2022/02/23 02:20:24;;;;;;;;;;;154.30;1510.40;;;;;;5096419;28;19965;-58
2022/02/23 02:22:52;;;;;;;;;;;154.20;1484.80;;;;;;5096474;28;19904;-58
2022/02/23 02:25:21;;;;;;;;;;;154.20;1510.40;;;;;;5096378;28;19951;-58
2022/02/23 02:27:49;;;;;;;;;;;154.20;1484.80;;;;;;5096383;28;19911;-58
2022/02/23 02:30:18;;;;;;;;;;;154.20;1510.40;;;;;;5096310;28;19912;-59
2022/02/23 02:32:44;;;;;;;;;;;154.20;1510.40;;;;;;5095931;28;19916;-58
2022/02/23 02:35:15;;;;;;;;;;;154.20;1484.80;;;;;;5096122;28;19911;-59
2022/02/23 02:37:44;;;;;;;;;;;154.30;1510.40;;;;;;5096046;28;20262;-59
2022/02/23 02:40:13;;;;;;;;;;;154.30;1484.80;;;;;;5095935;28;19912;-59
2022/02/23 02:42:41;;;;;;;;;;;154.20;1484.80;;;;;;5095805;28;19908;-58
2022/02/23 02:45:10;;;;;;;;;;;154.20;1510.40;;;;;;5095948;28;19904;-59
2022/02/23 02:47:38;;;;;;;;;;;154.20;1484.80;;;;;;5095970;28;19904;-58
2022/02/23 02:50:05;;;;;;;;;;;154.20;1510.40;;;;;;5095725;28;19911;-59
2022/02/23 02:52:34;;;;;;;;;;;154.20;1510.40;;;;;;5095517;28;20432;-58
2022/02/23 02:55:02;;;;;;;;;;;154.20;1510.40;;;;;;5095520;28;19904;-59
2022/02/23 02:57:28;;;;;;;;;;;154.10;1510.40;;;;;;5095616;28;19908;-59
2022/02/23 02:59:56;;;;;;;;;;;154.10;1510.40;;;;;;5095900;28;19912;-59
2022/02/23 03:02:25;;;;;;;;;;;154.00;1536.00;;;;;;5095602;28;20331;-58
2022/02/23 03:04:50;;;;;;;;;;;154.10;1510.40;;;;;;5095582;28;20273;-59
2022/02/23 03:07:19;;;;;;;;;;;154.00;1510.40;;;;;;5095628;28;19991;-58
2022/02/23 03:09:47;;;;;;;;;;;154.00;1510.40;;;;;;5095347;28;20261;-58
2022/02/23 03:12:13;;;;;;;;;;;154.00;1510.40;;;;;;5095369;28;19904;-58
2022/02/23 03:14:45;;;;;;;;;;;154.00;1510.40;;;;;;5095353;28;19904;-58
2022/02/23 03:26:31;;;;;;;;;;;153.90;1510.40;;;;;;5095606;28;20357;-59
2022/02/23 03:28:56;;;;;;;;;;;153.90;1536.00;;;;;;5095144;28;19939;-58
2022/02/23 03:41:35;;;;;;;;;;;153.90;1510.40;;;;;;5095048;27;19926;-58
2022/02/23 03:44:03;;;;;;;;;;;153.80;1536.00;;;;;;5094823;28;19908;-59
2022/02/23 03:55:50;;;;;;;;;;;153.60;1561.60;;;;;;5095494;28;19904;-58
2022/02/23 10:45:51;;;;;;;;;;;282.00;1408.00;;;;;;2036070;23;20213;-64
2022/02/23 10:48:30;;;;;;;;;;;281.90;1382.40;;;;;;5032302;28;19921;-64
2022/02/23 10:50:55;;;;;;;;;;;281.90;1382.40;;;;;;5035499;28;19931;-70
2022/02/23 10:53:28;;;;;;;;;;;281.90;1382.40;;;;;;5017306;28;20358;-69
2022/02/23 10:55:54;;;;;;;;;;;281.90;1408.00;;;;;;5035313;28;19916;-61
2022/02/23 10:58:20;;;;;;;;;;;281.80;1433.60;;;;;;5035390;28;19905;-63
2022/02/23 11:01:04;;;;;;;;;;;281.90;1459.20;;;;;;5035388;28;19967;-68
2022/02/23 11:03:30;;;;;;;;;;;281.80;1459.20;;;;;;5035432;28;19905;-72
2022/02/23 11:05:56;;;;;;;;;;;281.70;1484.80;;;;;;5035313;28;19964;-67
2022/02/23 11:08:21;;;;;;;;;;;281.70;1510.40;;;;;;5035117;28;19959;-67
2022/02/23 11:10:48;;;;;;;;;;;281.80;1561.60;;;;;;5035647;28;19909;-63
2022/02/23 11:13:17;;;;;;;;;;;281.70;1561.60;;;;;;5035374;28;19909;-62
2022/02/23 11:15:44;;;;;;;;;;;281.70;1561.60;;;;;;5035146;28;19905;-68
2022/02/23 11:18:11;;;;;;;;;;;281.70;1561.60;;;;;;5035083;28;19931;-62
2022/02/23 11:20:37;;;;;;;;;;;281.70;1561.60;;;;;;5034902;28;19917;-62
2022/02/23 11:23:03;;;;;;;;;;;281.60;1561.60;;;;;;5035137;28;19912;-65
2022/02/23 11:25:35;;;;;;;;;;;281.70;1561.60;;;;;;5035002;28;20358;-75
2022/02/23 11:28:20;;;;;;;;;;;281.70;1587.20;;;;;;5034971;28;19905;-66
2022/02/23 11:30:46;;;;;;;;;;;281.70;1587.20;;;;;;5034009;28;19905;-64
2022/02/23 11:33:12;;;;;;;;;;;281.80;1561.60;;;;;;5034503;28;19952;-69
2022/02/23 11:35:42;;;;;;;;;;;281.80;1561.60;;;;;;5034758;28;20266;-61
2022/02/23 11:38:08;;;;;;;;;;;281.70;1561.60;;;;;;5033962;28;19943;-62
2022/02/23 11:40:50;;;;;;;;;;;281.80;1561.60;;;;;;5033151;28;19941;-64
2022/02/23 11:43:24;;;;;;;;;;;281.80;1561.60;;;;;;5031191;28;19905;-71
2022/02/23 11:45:54;;;;;;;;;;;281.80;1561.60;;;;;;5014131;28;20372;-65
2022/02/23 11:48:20;;;;;;;;;;;281.80;1587.20;;;;;;5020740;28;19971;-65
2022/02/23 11:50:59;;;;;;;;;;;281.90;1561.60;;;;;;5033162;28;19909;-64
2022/02/23 11:53:36;;;;;;;;;;;281.90;1587.20;;;;;;5030825;28;19905;-65
2022/02/23 11:56:11;;;;;;;;;;;282.00;1587.20;;;;;;5025239;28;19909;-66
2022/02/23 12:01:47;;;;;;;;;;;282.10;1587.20;;;;;;5032619;28;19920;-63
2022/02/23 12:04:14;;;;;;;;;;;282.10;1587.20;;;;;;5032769;28;19916;-61
2022/02/23 12:07:06;;;;;;;;;;;282.20;1587.20;;;;;;5032577;28;20322;-62
2022/02/23 12:09:51;;;;;;;;;;;282.30;1561.60;;;;;;5030408;28;19909;-61
2022/02/23 12:12:35;;;;;;;;;;;282.30;1561.60;;;;;;5032446;28;20048;-62
2022/02/23 12:15:05;;;;;;;;;;;282.40;1561.60;;;;;;5030407;28;19959;-61
2022/02/23 12:17:42;;;;;;;;;;;282.50;1587.20;;;;;;5032851;28;20358;-61
2022/02/23 12:20:08;;;;;;;;;;;307.20;1612.80;;;;;;5032553;28;20282;-64
2022/02/23 12:22:37;;;;;;;;;;;307.30;1536.00;;;;;;5032568;28;19909;-62
2022/02/23 12:25:04;;;;;;;;;;;307.30;1536.00;;;;;;5031765;28;20363;-66
2022/02/23 12:27:30;;;;;;;;;;;307.40;1510.40;;;;;;5032836;28;19913;-65
2022/02/23 12:29:56;;;;;;;;;;;307.60;1510.40;;;;;;5032513;28;19909;-75
2022/02/23 12:32:25;;;;;;;;;;;307.60;1484.80;;;;;;5032304;28;20038;-65
2022/02/23 12:34:57;;;;;;;;;;;307.70;1459.20;;;;;;5032566;28;19905;-72
2022/02/23 12:37:23;;;;;;;;;;;307.70;1433.60;;;;;;5032413;28;19916;-67
2022/02/23 12:39:49;;;;;;;;;;;307.80;1408.00;;;;;;5033432;28;20376;-68
2022/02/23 12:42:16;;;;;;;;;;;307.90;1408.00;;;;;;5032405;28;19906;-68
2022/02/23 12:44:45;;;;;;;;;;;307.90;1408.00;;;;;;5032607;28;19920;-66
2022/02/23 12:47:11;;;;;;;;;;;308.00;1382.40;;;;;;5032335;28;19924;-68
2022/02/23 12:49:37;;;;;;;;;;;308.10;1382.40;;;;;;5017519;28;20286;-68
2022/02/23 12:52:03;;;;;;;;;;;308.10;1382.40;;;;;;5036619;28;19959;-68
2022/02/23 12:54:29;;;;;;;;;;;332.80;1408.00;;;;;;5036489;28;19912;-63
2022/02/23 12:56:55;;;;;;;;;;;332.80;1382.40;;;;;;5037315;28;19905;-66
2022/02/23 12:59:22;;;;;;;;;;;332.80;1382.40;;;;;;5037576;28;19920;-69
2022/02/23 13:01:49;;;;;;;;;;;332.90;1356.80;;;;;;5037238;28;19917;-65
2022/02/23 13:04:18;;;;;;;;;;;332.90;1331.20;;;;;;5036279;28;19944;-68
2022/02/23 13:06:47;;;;;;;;;;;333.00;1331.20;;;;;;5036276;28;19940;-69
2022/02/23 13:09:14;;;;;;;;;;;333.00;1305.60;;;;;;5015627;28;19968;-69
2022/02/23 13:11:42;;;;;;;;;;;333.00;1305.60;;;;;;5037489;28;20339;-68
2022/02/23 13:14:11;;;;;;;;;;;333.10;1331.20;;;;;;5043653;28;19913;-69
2022/02/23 13:16:37;;;;;;;;;;;333.10;1305.60;;;;;;5039917;28;19940;-67
2022/02/23 13:19:08;;;;;;;;;;;333.10;1280.00;;;;;;5043111;28;20062;-62
2022/02/23 13:21:41;;;;;;;;;;;333.10;1280.00;;;;;;5045423;28;19995;-69
2022/02/23 13:24:08;;;;;;;;;;;333.10;1280.00;;;;;;5046676;28;19972;-66
2022/02/23 13:26:35;;;;;;;;;;;333.10;1280.00;;;;;;5024211;28;19916;-65
2022/02/23 13:29:02;;;;;;;;;;;333.20;1280.00;;;;;;5044429;28;19936;-63
2022/02/23 13:31:33;;;;;;;;;;;333.20;1280.00;;;;;;5036739;28;19905;-66
2022/02/23 13:34:17;;;;;;;;;;;333.20;1280.00;;;;;;5037019;28;19905;-65
2022/02/23 13:36:43;;;;;;;;;;;333.30;1280.00;;;;;;5036932;28;19944;-64
2022/02/23 13:39:22;;;;;;;;;;;333.30;1254.40;;;;;;5036999;28;19944;-64
2022/02/23 13:42:02;;;;;;;;;;;333.30;1254.40;;;;;;5036302;28;20310;-63
2022/02/23 13:44:36;;;;;;;;;;;333.40;1254.40;;;;;;5036841;28;19999;-64
2022/02/23 13:47:09;;;;;;;;;;;333.50;1254.40;;;;;;5036602;28;20446;-63
2022/02/23 13:49:35;;;;;;;;;;;333.50;1254.40;;;;;;5036625;28;19916;-63
2022/02/23 13:52:01;;;;;;;;;;;333.40;1228.80;;;;;;5036632;28;19905;-63
2022/02/23 13:54:27;;;;;;;;;;;333.40;1203.20;;;;;;5035728;28;20318;-65
2022/02/23 13:56:53;;;;;;;;;;;333.40;1203.20;;;;;;5018738;28;19905;-63
2022/02/23 13:59:23;;;;;;;;;;;333.40;1177.60;;;;;;5035930;28;19913;-63
2022/02/23 14:01:59;;;;;;;;;;;333.40;1203.20;;;;;;5029172;28;19913;-66
2022/02/23 14:04:38;;;;;;;;;;;333.40;1203.20;;;;;;5036612;28;19905;-63
2022/02/23 14:07:04;;;;;;;;;;;333.40;1203.20;;;;;;5036445;28;19955;-72
2022/02/23 14:09:34;;;;;;;;;;;333.40;1203.20;;;;;;5036429;28;19909;-72
2022/02/23 14:11:59;;;;;;;;;;;333.40;1203.20;;;;;;5036422;28;20047;-63
2022/02/23 14:14:25;;;;;;;;;;;333.40;1203.20;;;;;;5018125;28;19960;-63
2022/02/23 14:16:51;;;;;;;;;;;333.50;1203.20;;;;;;5036008;28;19913;-65
2022/02/23 14:19:22;;;;;;;;;;;333.60;1203.20;;;;;;5036410;28;19913;-63
2022/02/23 14:22:06;;;;;;;;;;;333.50;1203.20;;;;;;5036311;28;19905;-63
2022/02/23 14:24:34;;;;;;;;;;;333.50;1152.00;;;;;;5018019;28;19911;-70
2022/02/23 14:27:01;;;;;;;;;;;333.50;1152.00;;;;;;5036058;28;20039;-69
2022/02/23 14:29:34;;;;;;;;;;;333.50;1126.40;;;;;;5036048;28;19952;-64
2022/02/23 14:32:01;;;;;;;;;;;333.40;1152.00;;;;;;5036136;28;19912;-65
2022/02/23 14:34:28;;;;;;;;;;;333.40;1152.00;;;;;;5018305;28;19905;-66
2022/02/23 14:36:58;;;;;;;;;;;333.40;1126.40;;;;;;5035740;28;19983;-67
2022/02/23 14:39:26;;;;;;;;;;;333.40;1126.40;;;;;;5035648;28;19921;-68
2022/02/23 14:41:52;;;;;;;;;;;333.40;1126.40;;;;;;5035674;28;19905;-66
2022/02/23 14:44:18;;;;;;;;;;;333.40;1126.40;;;;;;5017752;28;19975;-67
2022/02/23 14:46:44;;;;;;;;;;;333.40;1126.40;;;;;;5035550;28;19921;-67
2022/02/23 14:49:10;;;;;;;;;;;333.40;1126.40;;;;;;5035650;28;19909;-68
2022/02/23 14:51:35;;;;;;;;;;;333.50;1152.00;;;;;;5035245;28;19905;-66
2022/02/23 14:54:02;;;;;;;;;;;333.50;1126.40;;;;;;5035543;28;20342;-66
2022/02/23 14:56:28;;;;;;;;;;;333.50;1100.80;;;;;;5034938;28;19909;-69
2022/02/23 14:58:57;;;;;;;;;;;333.50;1126.40;;;;;;5035358;28;20333;-70
2022/02/23 15:01:23;;;;;;;;;;;333.50;1126.40;;;;;;5035173;28;19912;-68
2022/02/23 15:03:49;;;;;;;;;;;333.50;1152.00;;;;;;5035398;28;19905;-69
2022/02/23 15:06:14;;;;;;;;;;;333.50;1126.40;;;;;;5016965;28;19905;-68
2022/02/23 15:08:40;;;;;;;;;;;333.50;1126.40;;;;;;5035327;28;19952;-66
2022/02/23 15:11:06;;;;;;;;;;;333.50;1100.80;;;;;;5034585;28;20003;-64
2022/02/23 15:13:32;;;;;;;;;;;333.50;1100.80;;;;;;5035045;28;19912;-67
2022/02/23 15:16:00;;;;;;;;;;;333.40;1126.40;;;;;;5017087;28;19905;-70
2022/02/23 15:18:26;;;;;;;;;;;333.40;1126.40;;;;;;5035405;28;19905;-70
2022/02/23 15:20:52;;;;;;;;;;;333.40;1126.40;;;;;;5016326;28;19913;-67
2022/02/23 15:23:19;;;;;;;;;;;333.40;1126.40;;;;;;5015620;28;19909;-67
2022/02/23 15:25:44;;;;;;;;;;;333.30;1126.40;;;;;;5032896;28;19913;-67
2022/02/23 15:28:10;;;;;;;;;;;333.30;1126.40;;;;;;5033378;28;20386;-67
2022/02/23 15:30:36;;;;;;;;;;;333.30;1126.40;;;;;;5033672;28;19905;-68
2022/02/23 15:33:02;;;;;;;;;;;333.30;1152.00;;;;;;5034026;28;19909;-69
2022/02/23 15:35:27;;;;;;;;;;;333.20;1152.00;;;;;;5035121;28;19905;-68
2022/02/23 15:37:53;;;;;;;;;;;333.10;1177.60;;;;;;5034388;28;19905;-65
2022/02/23 15:40:18;;;;;;;;;;;333.20;1152.00;;;;;;5016737;28;20024;-66
2022/02/23 15:42:44;;;;;;;;;;;333.20;1152.00;;;;;;5015289;28;19909;-67
2022/02/23 15:45:10;;;;;;;;;;;333.20;1126.40;;;;;;5033214;28;19920;-66
2022/02/23 15:47:36;;;;;;;;;;;333.10;1126.40;;;;;;5032605;28;19916;-67
2022/02/23 15:50:02;;;;;;;;;;;333.10;1126.40;;;;;;5033315;28;19909;-68
2022/02/23 15:52:27;;;;;;;;;;;333.00;1152.00;;;;;;5033383;28;19966;-68
2022/02/23 15:54:53;;;;;;;;;;;333.00;1152.00;;;;;;5033166;28;19905;-67
2022/02/23 15:57:19;;;;;;;;;;;333.00;1152.00;;;;;;5033006;28;19908;-67
2022/02/23 15:59:44;;;;;;;;;;;332.90;1177.60;;;;;;5032894;28;19913;-63
2022/02/23 16:02:10;;;;;;;;;;;332.90;1152.00;;;;;;5034345;28;20414;-68
2022/02/23 16:04:37;;;;;;;;;;;332.90;1177.60;;;;;;5034351;28;19988;-67
2022/02/23 16:07:03;;;;;;;;;;;332.90;1254.40;;;;;;5034266;28;19908;-67
2022/02/23 16:09:28;;;;;;;;;;;332.90;1203.20;;;;;;5034406;28;19929;-67
2022/02/23 16:11:54;;;;;;;;;;;332.90;1177.60;;;;;;5033438;28;20408;-67
2022/02/23 16:14:22;;;;;;;;;;;332.90;1177.60;;;;;;5033404;28;19905;-67
2022/02/23 16:16:49;;;;;;;;;;;332.90;1177.60;;;;;;5033941;28;19905;-67
2022/02/23 16:19:15;;;;;;;;;;;332.90;1177.60;;;;;;5034394;28;20232;-67
2022/02/23 16:21:40;;;;;;;;;;;332.80;1177.60;;;;;;5033991;28;19920;-67
2022/02/23 16:24:06;;;;;;;;;;;332.80;1177.60;;;;;;5033506;28;19955;-67
2022/02/23 16:26:32;;;;;;;;;;;332.80;1177.60;;;;;;5034091;28;20320;-67
2022/02/23 16:28:57;;;;;;;;;;;308.10;1152.00;;;;;;5016301;28;19928;-67
2022/02/23 16:31:23;;;;;;;;;;;308.10;1177.60;;;;;;5033841;28;19948;-67
2022/02/23 16:33:53;;;;;;;;;;;308.10;1203.20;;;;;;5034318;28;19945;-67
2022/02/23 16:36:18;;;;;;;;;;;308.00;1177.60;;;;;;5034107;28;19905;-66
2022/02/23 16:38:44;;;;;;;;;;;308.00;1254.40;;;;;;5034129;28;19920;-67
2022/02/23 16:41:10;;;;;;;;;;;308.00;1203.20;;;;;;5033744;28;19936;-67
2022/02/23 16:43:35;;;;;;;;;;;307.90;1203.20;;;;;;5033801;28;19905;-74
2022/02/23 16:46:02;;;;;;;;;;;307.90;1203.20;;;;;;5033198;28;19913;-63
2022/02/23 16:48:28;;;;;;;;;;;307.90;1203.20;;;;;;5033096;28;19909;-62
2022/02/23 16:50:53;;;;;;;;;;;307.80;1203.20;;;;;;5033728;28;19909;-66
2022/02/23 16:53:20;;;;;;;;;;;307.80;1203.20;;;;;;5033917;28;20377;-64
2022/02/23 16:55:45;;;;;;;;;;;307.70;1203.20;;;;;;5015849;28;19928;-67
2022/02/23 16:58:12;;;;;;;;;;;307.60;1203.20;;;;;;5033898;28;19905;-65
2022/02/23 17:00:38;;;;;;;;;;;307.60;1228.80;;;;;;5031786;28;19924;-63
2022/02/23 17:03:04;;;;;;;;;;;307.60;1228.80;;;;;;5032413;28;19912;-63
2022/02/23 17:05:30;;;;;;;;;;;307.50;1228.80;;;;;;5032104;28;19936;-67
2022/02/23 17:07:55;;;;;;;;;;;307.40;1228.80;;;;;;5031829;28;19932;-67
2022/02/23 17:10:21;;;;;;;;;;;307.40;1203.20;;;;;;5013612;28;19913;-63
2022/02/23 17:12:47;;;;;;;;;;;307.40;1228.80;;;;;;5032140;28;19924;-67
2022/02/23 17:15:13;;;;;;;;;;;307.40;1228.80;;;;;;5032096;28;20354;-66
2022/02/23 17:17:39;;;;;;;;;;;307.30;1228.80;;;;;;5011744;28;20270;-64
2022/02/23 17:20:05;;;;;;;;;;;307.20;1228.80;;;;;;5031975;28;20403;-67
2022/02/23 17:22:30;;;;;;;;;;;307.20;1254.40;;;;;;5014916;28;20007;-62
2022/02/23 17:24:56;;;;;;;;;;;282.50;1228.80;;;;;;5032961;28;19994;-62
2022/02/23 17:27:22;;;;;;;;;;;282.40;1280.00;;;;;;5032944;28;19912;-62
2022/02/23 17:29:47;;;;;;;;;;;282.40;1228.80;;;;;;5033249;28;19975;-62
2022/02/23 17:32:13;;;;;;;;;;;282.30;1228.80;;;;;;5033402;28;19905;-63
2022/02/23 17:34:39;;;;;;;;;;;282.20;1228.80;;;;;;5034483;28;19941;-62
2022/02/23 17:37:04;;;;;;;;;;;282.10;1228.80;;;;;;5036095;28;19916;-63
2022/02/23 17:39:30;;;;;;;;;;;282.00;1254.40;;;;;;5036582;28;19960;-63
2022/02/23 17:41:56;;;;;;;;;;;281.90;1254.40;;;;;;5036792;28;19905;-62
2022/02/23 17:44:21;;;;;;;;;;;281.80;1254.40;;;;;;5037138;28;19905;-63
2022/02/23 17:46:47;;;;;;;;;;;281.70;1254.40;;;;;;5036618;28;19917;-62
2022/02/23 17:49:13;;;;;;;;;;;281.60;1254.40;;;;;;5036705;28;19909;-62
2022/02/23 17:51:39;;;;;;;;;;;281.60;1280.00;;;;;;5036114;28;20337;-63
2022/02/23 17:54:04;;;;;;;;;;;256.90;1228.80;;;;;;5036512;28;19912;-62
2022/02/23 17:56:30;;;;;;;;;;;256.80;1254.40;;;;;;5036787;28;19931;-68
2022/02/23 17:58:55;;;;;;;;;;;256.70;1254.40;;;;;;5036115;28;19948;-62
2022/02/23 18:01:21;;;;;;;;;;;256.70;1254.40;;;;;;5035688;28;19921;-67
2022/02/23 18:03:47;;;;;;;;;;;256.60;1254.40;;;;;;5034706;28;20282;-64
2022/02/23 18:06:12;;;;;;;;;;;256.60;1280.00;;;;;;5016888;28;20381;-62
2022/02/23 18:08:38;;;;;;;;;;;256.60;1280.00;;;;;;5033100;28;19905;-66
2022/02/23 18:11:03;;;;;;;;;;;256.40;1280.00;;;;;;5036042;28;20438;-64
2022/02/23 18:13:32;;;;;;;;;;;256.30;1280.00;;;;;;5035992;28;19913;-62
2022/02/23 18:15:58;;;;;;;;;;;256.40;1305.60;;;;;;5036400;28;19966;-62
2022/02/23 18:18:24;;;;;;;;;;;256.40;1280.00;;;;;;5035988;28;20298;-61
2022/02/23 18:20:49;;;;;;;;;;;256.30;1280.00;;;;;;5035684;28;19921;-63
2022/02/23 18:23:15;;;;;;;;;;;256.30;1280.00;;;;;;5036322;28;19905;-62
2022/02/23 18:25:41;;;;;;;;;;;256.30;1280.00;;;;;;5036114;28;19928;-61
2022/02/23 18:28:07;;;;;;;;;;;256.20;1280.00;;;;;;5036326;28;19967;-62
2022/02/23 18:30:32;;;;;;;;;;;256.20;1280.00;;;;;;5036022;28;20367;-61
2022/02/23 18:32:58;;;;;;;;;;;256.20;1331.20;;;;;;5035952;28;19905;-69
2022/02/23 18:35:23;;;;;;;;;;;256.20;1305.60;;;;;;5035835;28;19939;-66
2022/02/23 18:37:49;;;;;;;;;;;256.20;1280.00;;;;;;5035274;28;19912;-64
2022/02/23 18:40:15;;;;;;;;;;;256.20;1280.00;;;;;;5033855;28;20067;-62
2022/02/23 18:42:40;;;;;;;;;;;256.20;1305.60;;;;;;5034608;28;19909;-62
2022/02/23 18:45:07;;;;;;;;;;;256.20;1305.60;;;;;;5035503;28;19905;-62
2022/02/23 18:47:32;;;;;;;;;;;256.20;1280.00;;;;;;5048213;28;20484;-62
2022/02/23 18:49:58;;;;;;;;;;;256.20;1280.00;;;;;;5055361;28;19944;-62
2022/02/23 18:52:23;;;;;;;;;;;256.20;1280.00;;;;;;5055647;28;19909;-62
2022/02/23 18:54:49;;;;;;;;;;;256.20;1280.00;;;;;;5037389;28;19927;-62
2022/02/23 18:57:15;;;;;;;;;;;256.20;1280.00;;;;;;5055192;28;19904;-62
2022/02/23 18:59:40;;;;;;;;;;;256.10;1280.00;;;;;;5055190;28;19913;-62
2022/02/23 19:02:08;;;;;;;;;;;256.10;1254.40;;;;;;5051443;28;19944;-61
2022/02/23 19:04:34;;;;;;;;;;;256.00;1254.40;;;;;;5043655;28;19927;-63
2022/02/23 19:06:59;;;;;;;;;;;256.00;1280.00;;;;;;5044651;28;20402;-64
2022/02/23 19:09:25;;;;;;;;;;;256.00;1280.00;;;;;;5042792;28;19928;-63
2022/02/23 19:11:51;;;;;;;;;;;256.00;1280.00;;;;;;5044226;28;19913;-63
2022/02/23 19:14:16;;;;;;;;;;;256.00;1254.40;;;;;;5048876;28;20416;-62
2022/02/23 19:16:42;;;;;;;;;;;256.00;1280.00;;;;;;5044160;28;19909;-61
2022/02/23 19:19:07;;;;;;;;;;;231.30;1254.40;;;;;;5042521;28;19905;-63
2022/02/23 19:21:33;;;;;;;;;;;231.30;1280.00;;;;;;5047811;28;19916;-63
2022/02/23 19:23:59;;;;;;;;;;;231.30;1280.00;;;;;;5047401;28;19915;-67
2022/02/23 19:26:25;;;;;;;;;;;256.00;1280.00;;;;;;5024511;28;19909;-65
2022/02/23 19:28:50;;;;;;;;;;;256.00;1280.00;;;;;;5024724;28;19909;-63
2022/02/23 19:31:17;;;;;;;;;;;231.30;1280.00;;;;;;5042905;28;20320;-64
2022/02/23 19:33:43;;;;;;;;;;;256.00;1280.00;;;;;;5043974;28;20313;-64
2022/02/23 19:36:09;;;;;;;;;;;256.00;1254.40;;;;;;5042254;28;19912;-62
2022/02/23 19:38:34;;;;;;;;;;;256.00;1280.00;;;;;;5047178;28;19905;-64
2022/02/23 19:41:00;;;;;;;;;;;256.00;1254.40;;;;;;5053788;28;19948;-63
2022/02/23 19:43:26;;;;;;;;;;;256.00;1254.40;;;;;;5054555;28;20286;-63
2022/02/23 19:45:51;;;;;;;;;;;256.00;1254.40;;;;;;5053956;28;20343;-63
2022/02/23 19:48:17;;;;;;;;;;;256.00;1254.40;;;;;;5053981;28;20007;-63
2022/02/23 19:50:46;;;;;;;;;;;231.30;1254.40;;;;;;5036427;28;19954;-64
2022/02/23 19:53:12;;;;;;;;;;;231.30;1254.40;;;;;;5053974;28;19958;-63
2022/02/23 19:55:38;;;;;;;;;;;231.30;1254.40;;;;;;5054153;28;19905;-63
2022/02/23 19:58:04;;;;;;;;;;;231.30;1254.40;;;;;;5053679;28;20010;-62
2022/02/23 20:00:30;;;;;;;;;;;231.20;1254.40;;;;;;5053880;28;19981;-63
2022/02/23 20:02:58;;;;;;;;;;;231.20;1254.40;;;;;;5054098;28;20277;-64
2022/02/23 20:05:25;;;;;;;;;;;231.20;1254.40;;;;;;5054066;28;19999;-63
2022/02/23 20:07:51;;;;;;;;;;;231.10;1254.40;;;;;;5053809;28;20331;-63
2022/02/23 20:10:19;;;;;;;;;;;231.10;1280.00;;;;;;5053779;28;19995;-63
2022/02/23 20:12:46;;;;;;;;;;;231.00;1280.00;;;;;;5054248;28;19905;-62
2022/02/23 20:15:12;;;;;;;;;;;231.00;1280.00;;;;;;5053483;28;19953;-63
2022/02/23 20:17:37;;;;;;;;;;;230.90;1305.60;;;;;;5053466;28;19904;-63
2022/02/23 20:20:04;;;;;;;;;;;230.80;1305.60;;;;;;5035829;28;19979;-62
2022/02/23 20:22:29;;;;;;;;;;;230.70;1305.60;;;;;;5053884;28;19905;-62
2022/02/23 20:24:55;;;;;;;;;;;230.70;1305.60;;;;;;5035547;28;20281;-62
2022/02/23 20:27:20;;;;;;;;;;;230.70;1305.60;;;;;;5053477;28;19905;-63
2022/02/23 20:29:46;;;;;;;;;;;230.70;1305.60;;;;;;5054176;28;20401;-61
2022/02/23 20:32:11;;;;;;;;;;;230.60;1305.60;;;;;;5053206;28;19951;-61
2022/02/23 20:34:37;;;;;;;;;;;230.60;1305.60;;;;;;5053943;28;19905;-62
2022/02/23 20:37:06;;;;;;;;;;;230.60;1305.60;;;;;;5035835;28;20373;-61
2022/02/23 20:39:33;;;;;;;;;;;230.60;1305.60;;;;;;5035491;28;19923;-61
2022/02/23 20:41:58;;;;;;;;;;;230.50;1305.60;;;;;;5053567;28;19904;-61
2022/02/23 20:44:24;;;;;;;;;;;230.50;1305.60;;;;;;5053047;28;20409;-62
2022/02/23 20:46:50;;;;;;;;;;;230.50;1305.60;;;;;;5053060;28;20297;-61
2022/02/23 20:49:15;;;;;;;;;;;230.50;1305.60;;;;;;5035586;28;19905;-62
2022/02/23 20:51:41;;;;;;;;;;;230.50;1331.20;;;;;;5053614;28;19905;-62
2022/02/23 20:54:07;;;;;;;;;;;230.50;1331.20;;;;;;5053609;28;20046;-62
2022/02/23 20:56:33;;;;;;;;;;;230.40;1331.20;;;;;;5053374;28;19905;-61
2022/02/23 20:58:59;;;;;;;;;;;230.40;1305.60;;;;;;5035318;28;19928;-61
2022/02/23 21:01:25;;;;;;;;;;;230.40;1331.20;;;;;;5053330;28;19943;-62
2022/02/23 21:03:51;;;;;;;;;;;230.40;1305.60;;;;;;5053482;28;20322;-61